Time;durP1;ratioP1;P1;durP2;ratioP2;P2;SDS_P1;SDS_P2;PMS_P1;PMS_P2;Temp;Humidity;BMP_temperature;BMP_pressure;BME280_temperature;BME280_humidity;BME280_pressure;Samples;Min_cycle;Max_cycle;Signal;HPM_P1;HPM_P2
2022/02/19 00:00:48;;;;;;;5.28;1.17;;;;;;;2.59;100.00;92569.00;2097960;28;20031;-83
2022/02/19 00:01:49;;;;;;;8.70;1.38;;;;;;;2.50;100.00;92574.66;2101490;28;20225;-82
2022/02/19 00:02:51;;;;;;;11.10;1.17;;;;;;;2.67;100.00;92582.91;2097726;28;20028;-83
2022/02/19 00:03:52;;;;;;;12.20;1.70;;;;;;;2.71;100.00;92565.19;2098140;28;20484;-81
2022/02/19 00:04:53;;;;;;;5.20;1.13;;;;;;;2.50;100.00;92571.25;2097764;28;20025;-83
2022/02/19 00:05:54;;;;;;;3.13;0.90;;;;;;;2.53;100.00;92589.72;2098173;28;20472;-83
2022/02/19 00:06:55;;;;;;;6.82;1.35;;;;;;;2.59;100.00;92584.06;2098057;28;20050;-84
2022/02/19 00:07:56;;;;;;;7.60;1.83;;;;;;;2.34;100.00;92589.34;2089871;28;20017;-83
2022/02/19 00:08:58;;;;;;;11.10;1.65;;;;;;;2.35;100.00;92602.16;2098075;28;20046;-83
2022/02/19 00:09:59;;;;;;;11.25;1.65;;;;;;;2.27;100.00;92592.72;2098146;28;20024;-83
2022/02/19 00:11:02;;;;;;;7.47;1.48;;;;;;;2.38;100.00;92604.03;2098169;28;20044;-83
2022/02/19 00:12:04;;;;;;;10.75;1.60;;;;;;;2.23;100.00;92607.78;2113721;27;20460;-83
2022/02/19 00:13:05;;;;;;;7.25;1.48;;;;;;;2.35;100.00;92609.31;2114867;28;20555;-84
2022/02/19 00:14:06;;;;;;;11.88;1.45;;;;;;;2.31;100.00;92611.94;2114840;28;20019;-83
2022/02/19 00:15:08;;;;;;;2.90;1.00;;;;;;;2.14;100.00;92604.75;2114975;28;20042;-83
2022/02/19 00:16:08;;;;;;;2.15;0.70;;;;;;;2.11;100.00;92637.91;2106462;28;20070;-82
2022/02/19 00:17:09;;;;;;;0.95;0.55;;;;;;;2.06;100.00;92619.03;2099860;28;20144;-83
2022/02/19 00:18:11;;;;;;;1.83;0.63;;;;;;;2.03;100.00;92619.81;2097802;28;20024;-83
2022/02/19 00:19:12;;;;;;;2.88;0.88;;;;;;;1.71;100.00;92615.19;2106490;28;20024;-85
2022/02/19 00:20:14;;;;;;;2.50;0.60;;;;;;;1.93;100.00;92614.16;2106392;28;20149;-85
2022/02/19 00:21:16;;;;;;;2.05;0.73;;;;;;;1.83;100.00;92617.50;2090127;28;20020;-83
2022/02/19 00:22:17;;;;;;;0.90;0.60;;;;;;;1.60;100.00;92619.69;2098126;28;20099;-83
2022/02/19 00:23:17;;;;;;;2.42;0.70;;;;;;;1.53;100.00;92609.88;2098658;28;20046;-83
2022/02/19 00:24:18;;;;;;;4.50;0.80;;;;;;;1.58;100.00;92619.28;2114856;27;20336;-83
2022/02/19 00:25:20;;;;;;;3.20;0.82;;;;;;;1.67;100.00;92641.53;2106325;28;20039;-83
2022/02/19 00:26:21;;;;;;;3.70;0.80;;;;;;;1.77;100.00;92614.47;2106496;28;20131;-82
2022/02/19 00:27:22;;;;;;;4.55;0.82;;;;;;;1.88;100.00;92627.66;2106298;28;20484;-83
2022/02/19 00:28:24;;;;;;;4.45;1.60;;;;;;;1.79;100.00;92629.91;2098152;28;20016;-83
2022/02/19 00:29:25;;;;;;;2.72;0.80;;;;;;;1.84;100.00;92631.41;2102232;28;20051;-82
2022/02/19 00:30:26;;;;;;;3.70;0.80;;;;;;;1.80;100.00;92635.91;2106141;28;20024;-84
2022/02/19 00:31:29;;;;;;;2.90;0.80;;;;;;;1.63;100.00;92637.38;2106075;28;20120;-83
2022/02/19 00:32:30;;;;;;;4.90;0.90;;;;;;;1.57;100.00;92623.06;2090265;28;20075;-83
2022/02/19 00:33:31;;;;;;;3.42;1.23;;;;;;;1.71;100.00;92647.59;2096500;28;20021;-84
2022/02/19 00:34:32;;;;;;;5.55;1.52;;;;;;;1.77;100.00;92635.53;2114617;28;20062;-83
2022/02/19 00:35:33;;;;;;;6.50;1.38;;;;;;;1.63;100.00;92656.56;2106015;28;20111;-82
2022/02/19 00:36:35;;;;;;;6.82;1.17;;;;;;;1.72;100.00;92643.06;2097728;28;20028;-83
2022/02/19 00:37:36;;;;;;;4.20;1.10;;;;;;;1.68;100.00;92640.41;2098036;28;20020;-83
2022/02/19 00:38:37;;;;;;;8.73;1.42;;;;;;;1.76;100.00;92635.94;2106225;28;20084;-83
2022/02/19 00:39:38;;;;;;;7.25;1.40;;;;;;;1.70;100.00;92634.75;2106029;28;20035;-82
2022/02/19 00:40:39;;;;;;;7.18;2.05;;;;;;;1.74;100.00;92661.88;2106048;28;20750;-83
2022/02/19 00:41:40;;;;;;;4.43;1.02;;;;;;;1.84;100.00;92647.97;2097683;28;20040;-82
2022/02/19 00:42:41;;;;;;;5.35;1.83;;;;;;;1.85;100.00;92638.97;2089407;28;20338;-83
2022/02/19 00:43:42;;;;;;;5.57;1.20;;;;;;;1.79;100.00;92650.97;2089943;28;20052;-83
2022/02/19 00:44:43;;;;;;;8.52;1.23;;;;;;;1.64;100.00;92657.31;2097867;28;20025;-83
2022/02/19 00:45:44;;;;;;;6.57;1.25;;;;;;;1.60;100.00;92661.81;2097644;28;20035;-83
2022/02/19 00:46:45;;;;;;;10.73;1.85;;;;;;;1.68;100.00;92664.13;2106259;28;20059;-83
2022/02/19 00:47:46;;;;;;;5.22;1.08;;;;;;;1.67;100.00;92669.78;2114354;28;20015;-83
2022/02/19 00:48:47;;;;;;;5.20;1.20;;;;;;;1.70;100.00;92667.13;2097804;28;20078;-83
2022/02/19 00:49:48;;;;;;;6.50;1.88;;;;;;;1.66;100.00;92670.88;2106379;28;20069;-83
2022/02/19 00:50:49;;;;;;;9.20;1.55;;;;;;;1.65;100.00;92664.09;2104935;28;20341;-83
2022/02/19 00:51:51;;;;;;;7.03;1.15;;;;;;;1.69;100.00;92672.78;2088668;28;20678;-83
2022/02/19 00:52:55;;;;;;;6.45;1.35;;;;;;;1.81;100.00;92675.09;2097958;28;20020;-84
2022/02/19 00:53:56;;;;;;;8.65;1.50;;;;;;;1.70;100.00;92679.53;2092305;28;20059;-83
2022/02/19 00:54:57;;;;;;;9.13;2.00;;;;;;;1.87;100.00;92691.28;2097861;28;20020;-83
2022/02/19 00:55:58;;;;;;;5.78;1.88;;;;;;;2.00;100.00;92685.31;2097748;28;20462;-83
2022/02/19 00:56:59;;;;;;;6.47;1.42;;;;;;;1.80;100.00;92676.22;2097762;28;20464;-82
2022/02/19 00:58:00;;;;;;;4.90;1.80;;;;;;;2.04;100.00;92677.41;2106080;28;20032;-83
2022/02/19 00:59:01;;;;;;;6.38;1.20;;;;;;;1.96;100.00;92670.63;2089616;28;20020;-83
2022/02/19 01:00:05;;;;;;;8.35;1.73;;;;;;;1.93;100.00;92676.63;2106147;28;20417;-83
2022/02/19 01:01:06;;;;;;;7.85;1.20;;;;;;;2.02;100.00;92687.59;2114380;28;20054;-83
2022/02/19 01:02:06;;;;;;;5.18;1.58;;;;;;;1.91;100.00;92681.53;2097653;28;20080;-83
2022/02/19 01:03:07;;;;;;;9.98;1.65;;;;;;;1.82;100.00;92689.00;2097602;28;20378;-83
2022/02/19 01:04:08;;;;;;;5.90;1.30;;;;;;;2.09;100.00;92686.84;2106294;28;20372;-83
2022/02/19 01:05:10;;;;;;;7.63;1.45;;;;;;;2.15;100.00;92686.13;2106098;28;20542;-83
2022/02/19 01:06:11;;;;;;;4.88;1.27;;;;;;;2.07;100.00;92691.75;2104391;27;20035;-83
2022/02/19 01:07:12;;;;;;;7.78;1.63;;;;;;;2.07;100.00;92678.56;2105540;28;20052;-83
2022/02/19 01:08:13;;;;;;;6.22;1.30;;;;;;;2.05;100.00;92676.28;2106168;28;20028;-83
2022/02/19 01:09:14;;;;;;;8.38;1.75;;;;;;;2.00;100.00;92682.69;2114314;28;20051;-83
2022/02/19 01:10:15;;;;;;;8.50;1.40;;;;;;;1.98;100.00;92692.84;2114335;28;20031;-82
2022/02/19 01:11:17;;;;;;;10.13;1.83;;;;;;;1.93;100.00;92695.06;2105930;28;20086;-83
2022/02/19 01:12:19;;;;;;;6.88;1.40;;;;;;;2.10;100.00;92686.47;2097891;28;20492;-83
2022/02/19 01:13:21;;;;;;;11.32;1.85;;;;;;;1.99;100.00;92699.63;2097923;28;20033;-84
2022/02/19 01:14:21;;;;;;;5.40;1.70;;;;;;;2.09;100.00;92689.47;2097740;28;20025;-83
2022/02/19 01:15:23;;;;;;;8.95;1.77;;;;;;;1.85;100.00;92694.31;2097511;28;20067;-83
2022/02/19 01:16:24;;;;;;;4.90;1.40;;;;;;;1.73;100.00;92702.53;2097611;28;20032;-83
2022/02/19 01:17:25;;;;;;;4.80;1.40;;;;;;;1.95;100.00;92706.00;2097713;28;20028;-83
2022/02/19 01:18:26;;;;;;;4.22;1.27;;;;;;;1.84;100.00;92705.94;2097632;28;20397;-83
2022/02/19 01:19:27;;;;;;;7.47;1.25;;;;;;;1.76;100.00;92702.53;2105807;28;20158;-83
2022/02/19 01:20:28;;;;;;;7.20;1.33;;;;;;;1.99;100.00;92715.44;2097517;28;20025;-83
2022/02/19 01:21:29;;;;;;;9.55;1.25;;;;;;;1.95;100.00;92708.63;2097368;28;20051;-83
2022/02/19 01:22:30;;;;;;;9.70;1.60;;;;;;;1.95;100.00;92716.53;2105818;28;20568;-83
2022/02/19 01:23:31;;;;;;;11.32;1.67;;;;;;;1.86;100.00;92719.53;2104490;28;20024;-83
2022/02/19 01:24:32;;;;;;;10.43;1.58;;;;;;;1.90;100.00;92725.56;2096779;28;20070;-83
2022/02/19 01:25:33;;;;;;;7.32;1.25;;;;;;;1.74;100.00;92717.19;2097660;28;20082;-83
2022/02/19 01:26:34;;;;;;;4.00;1.30;;;;;;;1.85;100.00;92723.28;2097163;28;20064;-83
2022/02/19 01:27:35;;;;;;;7.15;1.30;;;;;;;2.09;100.00;92726.38;2097589;28;20028;-83
2022/02/19 01:28:37;;;;;;;9.77;1.55;;;;;;;1.95;100.00;92717.31;2097466;28;20100;-83
2022/02/19 01:29:38;;;;;;;9.98;1.55;;;;;;;2.01;100.00;92715.81;2097382;28;20119;-83
2022/02/19 01:30:38;;;;;;;6.00;1.50;;;;;;;1.90;100.00;92717.66;2097387;28;20024;-83
2022/02/19 01:31:39;;;;;;;8.85;1.73;;;;;;;1.73;100.00;92720.97;2097157;28;20024;-83
2022/02/19 01:32:40;;;;;;;8.00;1.55;;;;;;;1.94;100.00;92726.34;2101641;28;20043;-82
2022/02/19 01:33:41;;;;;;;6.22;1.33;;;;;;;1.92;100.00;92730.47;2114083;28;20031;-83
2022/02/19 01:34:42;;;;;;;11.48;1.30;;;;;;;1.86;100.00;92740.59;2105963;28;20030;-83
2022/02/19 01:35:43;;;;;;;8.35;1.30;;;;;;;1.94;100.00;92720.31;2105905;28;20043;-83
2022/02/19 01:36:44;;;;;;;5.93;1.50;;;;;;;1.82;100.00;92718.00;2097231;28;20118;-83
2022/02/19 01:37:45;;;;;;;7.00;1.52;;;;;;;2.13;100.00;92730.53;2097401;28;20382;-83
2022/02/19 01:38:46;;;;;;;5.75;1.50;;;;;;;2.00;100.00;92719.56;2105961;28;20024;-83
2022/02/19 01:39:47;;;;;;;8.85;1.50;;;;;;;1.98;100.00;92719.19;2097508;28;20027;-83
2022/02/19 01:40:48;;;;;;;9.45;1.63;;;;;;;1.69;100.00;92728.09;2097372;28;20025;-83
2022/02/19 01:41:49;;;;;;;5.75;1.92;;;;;;;1.61;100.00;92737.84;2102468;28;20020;-83
2022/02/19 01:42:50;;;;;;;9.40;1.33;;;;;;;1.70;100.00;92733.00;2111400;27;20035;-84
2022/02/19 01:43:51;;;;;;;7.55;1.25;;;;;;;1.68;100.00;92731.84;2114397;28;20047;-83
2022/02/19 01:44:53;;;;;;;7.03;1.70;;;;;;;1.96;100.00;92729.34;2097567;28;20024;-83
2022/02/19 01:45:54;;;;;;;13.32;1.88;;;;;;;1.60;100.00;92735.56;2101318;28;20528;-83
2022/02/19 01:46:54;;;;;;;14.00;1.65;;;;;;;1.62;100.00;92735.94;2105616;28;20031;-84
2022/02/19 01:47:55;;;;;;;9.63;1.80;;;;;;;1.59;100.00;92731.44;2105922;28;20023;-84
2022/02/19 01:48:56;;;;;;;10.68;1.50;;;;;;;1.77;100.00;92740.19;2105696;28;20028;-84
2022/02/19 01:49:57;;;;;;;6.80;1.23;;;;;;;1.74;100.00;92739.03;2097478;28;20016;-83
2022/02/19 01:50:59;;;;;;;8.20;1.63;;;;;;;1.94;100.00;92742.16;2097342;28;20063;-83
2022/02/19 01:52:00;;;;;;;5.70;1.33;;;;;;;1.88;100.00;92740.97;2097279;28;20524;-84
2022/02/19 01:53:12;;;;;;;6.75;1.48;;;;;;;1.64;100.00;92736.34;2088994;28;20049;-83
2022/02/19 01:54:13;;;;;;;10.95;1.48;;;;;;;1.52;100.00;92742.66;2098381;28;20048;-83
2022/02/19 01:55:14;;;;;;;5.47;1.83;;;;;;;1.44;100.00;92747.13;2097434;28;20025;-83
2022/02/19 01:56:15;;;;;;;6.03;1.17;;;;;;;1.39;100.00;92741.47;2105565;28;20030;-83
2022/02/19 01:57:17;;;;;;;8.40;1.40;;;;;;;1.57;100.00;92742.31;2105543;28;20020;-83
2022/02/19 01:58:18;;;;;;;9.10;1.90;;;;;;;1.64;100.00;92755.53;2089280;28;20197;-83
2022/02/19 01:59:19;;;;;;;11.93;1.40;;;;;;;1.50;100.00;92753.59;2089227;28;20036;-83
2022/02/19 02:00:21;;;;;;;8.20;1.52;;;;;;;1.69;100.00;92757.81;2097341;28;20476;-83
2022/02/19 02:01:22;;;;;;;9.23;1.58;;;;;;;1.69;100.00;92751.81;2106958;28;20026;-83
2022/02/19 02:02:23;;;;;;;9.02;1.73;;;;;;;1.44;100.00;92754.28;2096803;28;20440;-83
2022/02/19 02:03:24;;;;;;;8.27;2.25;;;;;;;1.66;100.00;92757.81;2097248;28;20024;-83
2022/02/19 02:04:25;;;;;;;7.57;1.40;;;;;;;1.76;100.00;92757.88;2097225;28;20058;-83
2022/02/19 02:05:26;;;;;;;8.20;2.00;;;;;;;1.60;100.00;92756.66;2108341;28;20036;-85
2022/02/19 02:06:27;;;;;;;9.50;1.92;;;;;;;1.79;100.00;92758.25;2105411;28;20119;-85
2022/02/19 02:07:28;;;;;;;5.25;1.30;;;;;;;1.60;100.00;92764.56;2097303;28;20373;-86
2022/02/19 02:08:30;;;;;;;10.85;1.70;;;;;;;1.51;100.00;92763.00;2097455;28;20016;-85
2022/02/19 02:11:22;;;;;;;6.47;1.85;;;;;;;1.72;100.00;92758.97;2138969;27;20186;-83
2022/02/19 02:12:23;;;;;;;7.82;1.65;;;;;;;1.61;100.00;92763.41;2121416;28;20031;-84
2022/02/19 02:13:25;;;;;;;7.35;2.17;;;;;;;1.96;100.00;92757.59;2104751;28;20025;-83
2022/02/19 02:14:26;;;;;;;8.23;1.55;;;;;;;1.70;100.00;92750.69;2121358;28;20131;-84
2022/02/19 02:15:32;;;;;;;17.00;2.55;;;;;;;1.57;100.00;92757.38;2104622;28;20432;-83
2022/02/19 02:16:42;;;;;;;8.13;1.50;;;;;;;1.62;100.00;92760.41;2116167;28;20053;-84
2022/02/19 02:17:43;;;;;;;10.07;1.70;;;;;;;1.66;100.00;92768.34;2118842;27;20137;-83
2022/02/19 02:18:45;;;;;;;8.73;1.80;;;;;;;1.71;100.00;92752.97;2113007;28;20036;-83
2022/02/19 02:19:46;;;;;;;8.00;2.42;;;;;;;1.79;100.00;92753.72;2104626;28;20021;-83
2022/02/19 02:20:47;;;;;;;10.60;1.88;;;;;;;1.82;100.00;92752.25;2110576;27;20706;-83
2022/02/19 02:21:48;;;;;;;10.90;1.50;;;;;;;1.73;100.00;92755.97;2121014;28;20035;-83
2022/02/19 02:22:49;;;;;;;9.68;1.70;;;;;;;1.75;100.00;92758.22;2104498;28;20377;-83
2022/02/19 02:23:50;;;;;;;7.90;1.27;;;;;;;1.76;100.00;92771.03;2104174;28;20058;-84
2022/02/19 02:24:52;;;;;;;9.13;1.70;;;;;;;1.76;100.00;92755.25;2104616;28;20119;-83
2022/02/19 02:25:54;;;;;;;10.38;1.73;;;;;;;1.71;100.00;92779.31;2107225;28;20028;-83
2022/02/19 02:26:57;;;;;;;4.45;1.10;;;;;;;1.72;100.00;92769.53;2112852;28;20035;-85
2022/02/19 02:27:58;;;;;;;13.80;1.98;;;;;;;1.59;100.00;92763.78;2104833;28;20118;-85
2022/02/19 02:28:59;;;;;;;10.88;2.35;;;;;;;1.81;100.00;92771.81;2103680;28;20095;-86
2022/02/19 02:30:00;;;;;;;15.10;1.80;;;;;;;1.71;100.00;92768.75;2104418;28;20024;-85
2022/02/19 02:31:05;;;;;;;11.80;1.90;;;;;;;1.63;100.00;92774.38;2104467;28;20118;-85
2022/02/19 02:32:06;;;;;;;6.97;1.40;;;;;;;1.48;100.00;92781.41;2105482;28;20020;-86
2022/02/19 02:33:15;;;;;;;10.30;1.67;;;;;;;1.39;100.00;92767.78;2112841;28;20031;-85
2022/02/19 02:34:25;;;;;;;8.63;1.58;;;;;;;1.31;100.00;92774.13;2121219;28;20416;-86
2022/02/19 02:35:26;;;;;;;8.55;1.55;;;;;;;1.31;100.00;92772.25;2105459;28;20036;-85
2022/02/19 02:36:27;;;;;;;9.35;1.42;;;;;;;1.37;100.00;92781.34;2104452;28;20028;-85
2022/02/19 02:37:28;;;;;;;10.35;1.73;;;;;;;1.38;100.00;92782.09;2104579;28;20024;-86
2022/02/19 02:38:29;;;;;;;10.48;1.60;;;;;;;1.41;100.00;92770.84;2104891;28;20423;-86
2022/02/19 02:39:30;;;;;;;7.53;1.50;;;;;;;1.51;100.00;92776.16;2104374;28;20477;-85
2022/02/19 02:40:32;;;;;;;9.25;1.50;;;;;;;1.52;100.00;92776.91;2104427;28;20020;-85
2022/02/19 02:41:33;;;;;;;8.60;1.88;;;;;;;1.75;100.00;92784.56;2104520;28;20024;-85
2022/02/19 02:42:34;;;;;;;7.88;1.55;;;;;;;1.77;100.00;92785.72;2104562;28;20107;-85
2022/02/19 02:43:36;;;;;;;10.05;1.40;;;;;;;1.69;100.00;92793.97;2104248;28;20024;-85
2022/02/19 02:44:40;;;;;;;12.20;1.60;;;;;;;1.73;100.00;92787.59;2104311;28;20067;-85
2022/02/19 02:45:41;;;;;;;11.68;1.40;;;;;;;1.74;100.00;92809.41;2105147;28;20562;-84
2022/02/19 02:46:42;;;;;;;10.90;1.88;;;;;;;1.69;100.00;92804.50;2104139;28;20024;-86
2022/02/19 02:47:43;;;;;;;5.70;1.48;;;;;;;1.65;100.00;92783.38;2104240;28;20020;-84
2022/02/19 02:48:44;;;;;;;6.85;1.60;;;;;;;1.38;100.00;92795.25;2112721;28;20057;-85
2022/02/19 02:49:45;;;;;;;10.02;1.52;;;;;;;1.41;100.00;92789.25;2104242;28;20024;-85
2022/02/19 02:50:46;;;;;;;14.25;1.52;;;;;;;1.42;100.00;92783.63;2112617;27;20489;-85
2022/02/19 02:51:47;;;;;;;9.50;1.73;;;;;;;1.71;100.00;92789.06;2120949;27;20057;-85
2022/02/19 02:52:48;;;;;;;11.00;2.15;;;;;;;1.44;100.00;92796.41;2112464;28;20034;-85
2022/02/19 02:53:49;;;;;;;7.35;1.58;;;;;;;1.46;100.00;92794.94;2110121;28;20024;-85
2022/02/19 02:54:51;;;;;;;12.90;1.90;;;;;;;1.55;100.00;92794.63;2104302;28;20424;-85
2022/02/19 02:55:53;;;;;;;8.48;1.80;;;;;;;1.56;100.00;92795.38;2096535;28;20118;-85
2022/02/19 02:56:54;;;;;;;13.75;2.05;;;;;;;1.47;100.00;92796.44;2110173;28;20081;-85
2022/02/19 02:57:55;;;;;;;7.75;1.40;;;;;;;1.37;100.00;92801.66;2095673;28;20020;-85
2022/02/19 02:58:56;;;;;;;10.82;1.83;;;;;;;1.50;100.00;92801.00;2104065;28;20028;-85
2022/02/19 02:59:57;;;;;;;8.05;1.33;;;;;;;1.45;100.00;92803.97;2095729;28;20098;-86
2022/02/19 03:00:58;;;;;;;12.13;1.75;;;;;;;1.43;100.00;92806.19;2112817;28;20016;-85
2022/02/19 03:01:59;;;;;;;10.65;1.55;;;;;;;1.46;100.00;92802.84;2120775;28;20102;-85
2022/02/19 03:02:59;;;;;;;15.18;2.00;;;;;;;1.39;100.00;92802.78;2112290;28;20024;-84
2022/02/19 03:04:00;;;;;;;9.90;1.50;;;;;;;1.44;100.00;92812.97;2112637;28;20483;-85
2022/02/19 03:05:02;;;;;;;13.73;1.73;;;;;;;1.32;100.00;92817.75;2103980;28;20204;-85
2022/02/19 03:06:04;;;;;;;15.00;2.10;;;;;;;1.37;100.00;92826.09;2104227;28;20492;-84
2022/02/19 03:07:05;;;;;;;15.52;2.22;;;;;;;1.59;100.00;92823.63;2103847;28;20052;-85
2022/02/19 03:08:06;;;;;;;11.57;1.88;;;;;;;1.46;100.00;92823.91;2102287;28;20028;-85
2022/02/19 03:09:07;;;;;;;10.07;1.63;;;;;;;1.42;100.00;92817.84;2104243;28;20576;-85
2022/02/19 03:10:08;;;;;;;9.70;2.22;;;;;;;1.40;100.00;92816.69;2103777;28;20013;-85
2022/02/19 03:11:09;;;;;;;10.48;1.98;;;;;;;1.47;100.00;92830.69;2103868;28;20052;-85
2022/02/19 03:12:10;;;;;;;10.07;1.52;;;;;;;1.33;100.00;92827.94;2112311;28;20028;-85
2022/02/19 03:13:11;;;;;;;11.73;1.70;;;;;;;1.37;100.00;92834.00;2103978;28;20020;-85
2022/02/19 03:14:12;;;;;;;9.30;1.70;;;;;;;1.69;100.00;92817.66;2101918;28;20031;-85
2022/02/19 03:15:18;;;;;;;12.88;1.88;;;;;;;1.60;100.00;92831.16;2112418;28;20045;-85
2022/02/19 03:16:19;;;;;;;10.13;1.30;;;;;;;1.63;100.00;92845.47;2104434;28;20073;-84
2022/02/19 03:17:20;;;;;;;8.38;2.03;;;;;;;1.64;100.00;92833.81;2103943;28;20496;-85
2022/02/19 03:18:21;;;;;;;9.05;2.60;;;;;;;1.76;99.29;92833.53;2095980;28;20023;-85
2022/02/19 03:19:22;;;;;;;8.88;1.80;;;;;;;1.79;100.00;92832.03;2121014;27;20380;-84
2022/02/19 03:20:24;;;;;;;7.90;1.05;;;;;;;1.80;100.00;92833.53;2112407;28;20419;-84
2022/02/19 03:21:25;;;;;;;11.23;2.13;;;;;;;1.39;100.00;92833.63;2095530;28;20107;-84
2022/02/19 03:22:26;;;;;;;12.50;1.88;;;;;;;1.55;100.00;92843.91;2083717;28;20095;-84
2022/02/19 03:23:28;;;;;;;11.45;2.15;;;;;;;1.55;100.00;92849.19;2090009;28;20037;-85
2022/02/19 03:24:29;;;;;;;11.57;1.92;;;;;;;1.52;100.00;92834.84;2090616;28;20029;-85
2022/02/19 03:25:30;;;;;;;9.50;1.80;;;;;;;1.38;100.00;92838.13;2090152;28;20362;-85
2022/02/19 03:26:31;;;;;;;11.18;2.10;;;;;;;1.49;100.00;92838.22;2090039;28;20438;-85
2022/02/19 03:27:32;;;;;;;9.43;1.65;;;;;;;1.37;100.00;92841.13;2098239;28;20493;-86
2022/02/19 03:28:34;;;;;;;12.13;2.10;;;;;;;1.45;100.00;92842.72;2090102;28;20021;-83
2022/02/19 03:29:35;;;;;;;14.02;2.30;;;;;;;1.34;100.00;92836.59;2098568;28;20020;-83
2022/02/19 03:30:36;;;;;;;15.45;2.30;;;;;;;1.23;100.00;92841.78;2098354;28;20409;-82
2022/02/19 03:31:37;;;;;;;12.45;2.08;;;;;;;1.13;100.00;92845.06;2090038;28;20112;-82
2022/02/19 03:32:39;;;;;;;14.25;1.88;;;;;;;1.17;100.00;92849.22;2090116;28;20021;-83
2022/02/19 03:33:40;;;;;;;12.23;1.90;;;;;;;1.27;100.00;92850.44;2098915;28;20028;-83
2022/02/19 03:34:41;;;;;;;9.25;1.75;;;;;;;1.17;100.00;92849.22;2098463;28;20021;-83
2022/02/19 03:35:54;;;;;;;8.65;1.35;;;;;;;1.13;100.00;92853.72;2089888;28;20032;-83
2022/02/19 03:36:55;;;;;;;10.30;1.70;;;;;;;1.29;100.00;92847.47;2099868;28;20103;-83
2022/02/19 03:37:56;;;;;;;10.70;1.77;;;;;;;1.35;100.00;92857.28;2098153;28;20098;-82
2022/02/19 03:38:57;;;;;;;12.05;1.70;;;;;;;1.47;100.00;92859.66;2098258;28;20016;-82
2022/02/19 03:39:58;;;;;;;9.27;1.95;;;;;;;1.30;100.00;92856.88;2098220;28;20112;-83
2022/02/19 03:40:59;;;;;;;16.38;2.65;;;;;;;1.44;100.00;92847.19;2106836;28;20024;-82
2022/02/19 03:41:59;;;;;;;15.82;1.85;;;;;;;1.58;100.00;92859.75;2098000;28;20484;-83
2022/02/19 03:43:01;;;;;;;11.20;1.75;;;;;;;1.50;100.00;92858.94;2098041;28;20143;-82
2022/02/19 03:44:09;;;;;;;13.38;1.83;;;;;;;1.59;100.00;92865.78;2090063;28;20021;-82
2022/02/19 03:45:17;;;;;;;14.55;1.83;;;;;;;1.40;100.00;92854.31;2091912;28;20416;-82
2022/02/19 03:46:24;;;;;;;7.90;1.20;;;;;;;1.56;100.00;92866.50;2098853;28;20051;-82
2022/02/19 03:47:25;;;;;;;8.48;1.63;;;;;;;1.59;99.50;92871.78;2090790;28;20024;-82
2022/02/19 03:48:26;;;;;;;10.43;1.80;;;;;;;1.61;100.00;92868.78;2089973;28;20482;-82
2022/02/19 03:49:27;;;;;;;10.15;1.52;;;;;;;1.49;100.00;92861.91;2089863;28;20054;-82
2022/02/19 03:50:28;;;;;;;13.80;1.60;;;;;;;1.58;100.00;92875.56;2089894;28;20391;-83
2022/02/19 03:51:29;;;;;;;15.45;1.88;;;;;;;1.32;100.00;92871.19;2089850;28;20147;-83
2022/02/19 03:52:30;;;;;;;10.40;1.60;;;;;;;1.16;100.00;92881.19;2081863;28;20033;-83
2022/02/19 03:53:31;;;;;;;13.38;1.65;;;;;;;1.44;100.00;92878.81;2091109;28;20024;-83
2022/02/19 03:54:32;;;;;;;10.38;1.88;;;;;;;1.52;100.00;92877.00;2097986;28;20054;-82
2022/02/19 03:55:33;;;;;;;8.23;1.60;;;;;;;1.38;100.00;92875.00;2089748;28;20070;-82
2022/02/19 03:56:44;;;;;;;7.55;1.90;;;;;;;1.36;100.00;92882.53;2091502;28;20028;-83
2022/02/19 03:57:45;;;;;;;11.00;1.90;;;;;;;1.41;100.00;92890.09;2099329;28;20032;-83
2022/02/19 03:58:46;;;;;;;14.80;2.13;;;;;;;1.45;100.00;92879.59;2098199;28;20028;-82
2022/02/19 03:59:47;;;;;;;9.55;1.25;;;;;;;1.29;100.00;92876.41;2089876;28;20020;-83
2022/02/19 04:00:48;;;;;;;11.32;1.70;;;;;;;1.55;100.00;92888.69;2106772;27;20051;-83
2022/02/19 04:01:49;;;;;;;6.35;1.67;;;;;;;1.50;100.00;92887.16;2114775;28;20055;-83
2022/02/19 04:02:49;;;;;;;8.70;1.77;;;;;;;1.32;100.00;92899.38;2098220;28;20843;-83
2022/02/19 04:03:50;;;;;;;11.68;1.90;;;;;;;1.41;100.00;92905.88;2089818;28;20025;-82
2022/02/19 04:04:51;;;;;;;12.45;1.75;;;;;;;1.51;100.00;92893.91;2098011;28;20059;-82
2022/02/19 04:05:52;;;;;;;7.32;1.88;;;;;;;1.49;100.00;92904.81;2106468;28;20650;-83
2022/02/19 04:06:53;;;;;;;7.50;1.75;;;;;;;1.26;100.00;92901.59;2098117;28;20070;-83
2022/02/19 04:07:54;;;;;;;16.10;2.42;;;;;;;1.17;100.00;92916.91;2089610;28;20059;-85
2022/02/19 04:08:55;;;;;;;9.48;1.45;;;;;;;1.34;100.00;92903.16;2097793;28;20020;-85
2022/02/19 04:09:56;;;;;;;8.48;1.88;;;;;;;1.47;100.00;92906.28;2098000;28;20457;-85
2022/02/19 04:10:58;;;;;;;12.57;2.05;;;;;;;1.23;100.00;92905.72;2089448;28;20138;-85
2022/02/19 04:11:58;;;;;;;11.98;2.28;;;;;;;1.14;100.00;92915.00;2091832;28;20036;-85
2022/02/19 04:12:59;;;;;;;15.30;1.98;;;;;;;1.27;100.00;92911.00;2097958;28;20044;-85
2022/02/19 04:14:00;;;;;;;12.23;1.85;;;;;;;1.36;100.00;92916.75;2097978;28;20028;-86
2022/02/19 04:15:03;;;;;;;13.35;1.70;;;;;;;1.47;99.92;92909.69;2109108;28;20024;-86
2022/02/19 04:16:04;;;;;;;10.07;1.98;;;;;;;1.49;100.00;92917.22;2106363;28;20031;-85
2022/02/19 04:17:06;;;;;;;9.60;1.55;;;;;;;1.37;100.00;92913.00;2098031;28;20113;-85
2022/02/19 04:18:07;;;;;;;11.30;1.77;;;;;;;1.21;100.00;92921.09;2106574;28;20106;-85
2022/02/19 04:19:08;;;;;;;13.40;1.88;;;;;;;1.19;100.00;92919.97;2097999;28;20514;-85
2022/02/19 04:20:09;;;;;;;8.55;1.67;;;;;;;1.05;100.00;92911.91;2089639;28;20032;-85
2022/02/19 04:21:11;;;;;;;10.02;1.73;;;;;;;1.08;100.00;92911.19;2089632;28;20140;-85
2022/02/19 04:22:12;;;;;;;10.02;1.52;;;;;;;1.00;100.00;92916.38;2088008;28;20132;-85
2022/02/19 04:23:12;;;;;;;11.30;1.55;;;;;;;0.95;100.00;92908.03;2090113;28;20040;-85
2022/02/19 04:24:13;;;;;;;13.57;2.08;;;;;;;0.98;100.00;92915.97;2097798;28;20044;-84
2022/02/19 04:25:14;;;;;;;8.57;1.60;;;;;;;0.99;100.00;92914.84;2097967;28;20039;-84
2022/02/19 04:26:16;;;;;;;11.30;2.00;;;;;;;0.89;100.00;92912.13;2089677;28;20064;-84
2022/02/19 04:27:19;;;;;;;12.85;1.92;;;;;;;0.93;100.00;92902.41;2098012;28;20089;-85
2022/02/19 04:28:21;;;;;;;11.27;1.60;;;;;;;0.91;100.00;92917.78;2098160;28;20028;-85
2022/02/19 04:29:23;;;;;;;10.27;1.50;;;;;;;0.92;100.00;92921.91;2098389;28;20024;-85
2022/02/19 04:30:24;;;;;;;8.60;1.52;;;;;;;1.13;100.00;92924.03;2098039;28;20035;-85
2022/02/19 04:31:25;;;;;;;10.80;2.13;;;;;;;1.33;97.45;92929.88;2106155;28;20484;-84
2022/02/19 04:32:28;;;;;;;10.68;1.95;;;;;;;1.30;100.00;92926.06;2106315;28;20054;-85
2022/02/19 04:33:29;;;;;;;13.25;1.88;;;;;;;1.48;98.58;92934.91;2098006;28;20166;-84
2022/02/19 04:34:30;;;;;;;8.10;1.70;;;;;;;1.39;99.51;92931.06;2105291;28;20081;-84
2022/02/19 04:35:32;;;;;;;11.15;1.48;;;;;;;1.39;98.49;92923.91;2089487;28;20021;-84
2022/02/19 04:36:33;;;;;;;11.43;1.25;;;;;;;1.22;100.00;92927.88;2089756;28;20035;-85
2022/02/19 04:37:57;;;;;;;10.57;1.55;;;;;;;1.10;100.00;92935.25;2089702;28;20120;-85
2022/02/19 04:38:58;;;;;;;9.55;1.60;;;;;;;1.08;100.00;92940.13;2104190;28;20020;-85
2022/02/19 04:40:00;;;;;;;9.40;1.88;;;;;;;1.30;96.68;92939.25;2097738;28;20118;-86
2022/02/19 04:41:01;;;;;;;12.85;1.85;;;;;;;1.28;98.36;92946.75;2098026;28;20016;-86
2022/02/19 04:42:02;;;;;;;14.32;1.95;;;;;;;1.34;98.96;92941.91;2106056;28;20085;-85
2022/02/19 04:43:04;;;;;;;11.88;2.20;;;;;;;1.33;97.43;92946.44;2097876;28;20025;-85
2022/02/19 04:44:05;;;;;;;8.40;1.33;;;;;;;1.32;96.14;92941.50;2089606;28;20123;-85
2022/02/19 04:45:07;;;;;;;10.15;1.70;;;;;;;1.32;99.15;92944.91;2089590;28;20153;-85
2022/02/19 04:46:08;;;;;;;16.50;2.13;;;;;;;1.61;93.66;92950.44;2097713;28;20024;-85
2022/02/19 04:47:09;;;;;;;10.55;2.33;;;;;;;1.44;98.19;92951.78;2097744;28;20043;-85
2022/02/19 04:48:10;;;;;;;8.70;1.67;;;;;;;1.56;96.11;92942.88;2097635;28;20032;-85
2022/02/19 04:49:11;;;;;;;9.38;1.73;;;;;;;1.56;100.00;92937.59;2098047;28;20024;-85
2022/02/19 04:50:12;;;;;;;10.48;2.25;;;;;;;1.23;100.00;92939.19;2106029;28;20118;-85
2022/02/19 04:51:13;;;;;;;11.85;1.40;;;;;;;1.43;98.74;92958.94;2105966;28;20055;-84